sensor_id;sensor_type;location;lat;lon;timestamp;P1;durP1;ratioP1;P2;durP2;ratioP2
70832;SDS011;58452;59.418;17.962;2022-08-21T00:01:48;6.40;;;1.90;;
70832;SDS011;58452;59.418;17.962;2022-08-21T00:04:13;10.90;;;2.20;;
70832;SDS011;58452;59.418;17.962;2022-08-21T00:06:38;4.78;;;1.27;;
70832;SDS011;58452;59.418;17.962;2022-08-21T00:09:05;4.28;;;1.23;;
70832;SDS011;58452;59.418;17.962;2022-08-21T00:11:32;4.22;;;1.20;;
70832;SDS011;58452;59.418;17.962;2022-08-21T00:14:00;5.32;;;2.15;;
70832;SDS011;58452;59.418;17.962;2022-08-21T00:16:26;6.32;;;1.17;;
70832;SDS011;58452;59.418;17.962;2022-08-21T00:18:51;6.15;;;1.67;;
70832;SDS011;58452;59.418;17.962;2022-08-21T00:21:17;4.97;;;1.48;;
70832;SDS011;58452;59.418;17.962;2022-08-21T00:23:42;3.10;;;1.60;;
70832;SDS011;58452;59.418;17.962;2022-08-21T00:26:08;5.25;;;1.95;;
70832;SDS011;58452;59.418;17.962;2022-08-21T00:28:34;7.18;;;1.80;;
70832;SDS011;58452;59.418;17.962;2022-08-21T00:30:59;6.57;;;1.67;;
70832;SDS011;58452;59.418;17.962;2022-08-21T00:33:28;4.30;;;1.42;;
70832;SDS011;58452;59.418;17.962;2022-08-21T00:35:54;8.30;;;2.35;;
70832;SDS011;58452;59.418;17.962;2022-08-21T00:38:20;6.10;;;1.65;;
70832;SDS011;58452;59.418;17.962;2022-08-21T00:40:49;7.82;;;1.80;;
70832;SDS011;58452;59.418;17.962;2022-08-21T00:43:18;3.42;;;1.92;;
70832;SDS011;58452;59.418;17.962;2022-08-21T00:45:48;6.78;;;1.98;;
70832;SDS011;58452;59.418;17.962;2022-08-21T00:48:14;6.40;;;1.95;;
70832;SDS011;58452;59.418;17.962;2022-08-21T00:50:41;4.68;;;1.60;;
70832;SDS011;58452;59.418;17.962;2022-08-21T00:53:11;8.73;;;2.10;;
70832;SDS011;58452;59.418;17.962;2022-08-21T00:55:38;3.60;;;1.33;;
70832;SDS011;58452;59.418;17.962;2022-08-21T00:58:05;6.07;;;2.28;;
70832;SDS011;58452;59.418;17.962;2022-08-21T01:00:34;6.22;;;1.92;;
70832;SDS011;58452;59.418;17.962;2022-08-21T01:03:05;8.70;;;3.17;;
70832;SDS011;58452;59.418;17.962;2022-08-21T01:05:36;8.52;;;3.35;;
70832;SDS011;58452;59.418;17.962;2022-08-21T01:08:03;6.55;;;2.40;;
70832;SDS011;58452;59.418;17.962;2022-08-21T01:10:31;5.65;;;2.22;;
70832;SDS011;58452;59.418;17.962;2022-08-21T01:12:56;8.00;;;2.28;;
70832;SDS011;58452;59.418;17.962;2022-08-21T01:15:24;7.05;;;1.88;;
70832;SDS011;58452;59.418;17.962;2022-08-21T01:17:55;8.30;;;1.98;;
70832;SDS011;58452;59.418;17.962;2022-08-21T01:20:20;7.57;;;2.03;;
70832;SDS011;58452;59.418;17.962;2022-08-21T01:22:46;9.32;;;1.70;;
70832;SDS011;58452;59.418;17.962;2022-08-21T01:25:13;5.32;;;1.58;;
70832;SDS011;58452;59.418;17.962;2022-08-21T01:27:40;8.23;;;2.05;;
70832;SDS011;58452;59.418;17.962;2022-08-21T01:30:39;4.72;;;1.63;;
70832;SDS011;58452;59.418;17.962;2022-08-21T01:32:59;9.30;;;2.30;;
70832;SDS011;58452;59.418;17.962;2022-08-21T01:35:24;10.40;;;1.60;;
70832;SDS011;58452;59.418;17.962;2022-08-21T01:37:50;6.47;;;1.38;;
70832;SDS011;58452;59.418;17.962;2022-08-21T01:40:16;6.35;;;2.08;;
70832;SDS011;58452;59.418;17.962;2022-08-21T01:42:43;7.93;;;2.38;;
70832;SDS011;58452;59.418;17.962;2022-08-21T01:45:10;8.68;;;1.70;;
70832;SDS011;58452;59.418;17.962;2022-08-21T01:47:36;5.45;;;1.60;;
70832;SDS011;58452;59.418;17.962;2022-08-21T01:50:06;8.25;;;2.83;;
70832;SDS011;58452;59.418;17.962;2022-08-21T01:52:35;6.57;;;2.42;;
70832;SDS011;58452;59.418;17.962;2022-08-21T01:55:01;7.80;;;1.70;;
70832;SDS011;58452;59.418;17.962;2022-08-21T01:57:27;7.18;;;1.40;;
70832;SDS011;58452;59.418;17.962;2022-08-21T01:59:53;7.30;;;1.80;;
70832;SDS011;58452;59.418;17.962;2022-08-21T02:02:18;8.52;;;1.80;;
70832;SDS011;58452;59.418;17.962;2022-08-21T02:04:44;6.07;;;1.80;;
70832;SDS011;58452;59.418;17.962;2022-08-21T02:07:09;6.00;;;1.77;;
70832;SDS011;58452;59.418;17.962;2022-08-21T02:09:34;6.13;;;1.92;;
70832;SDS011;58452;59.418;17.962;2022-08-21T02:12:00;8.25;;;1.95;;
70832;SDS011;58452;59.418;17.962;2022-08-21T02:14:25;6.63;;;1.90;;
70832;SDS011;58452;59.418;17.962;2022-08-21T02:16:51;4.90;;;1.60;;
70832;SDS011;58452;59.418;17.962;2022-08-21T02:19:16;8.45;;;2.22;;
70832;SDS011;58452;59.418;17.962;2022-08-21T02:21:42;6.53;;;2.05;;
70832;SDS011;58452;59.418;17.962;2022-08-21T02:24:08;5.97;;;2.15;;
70832;SDS011;58452;59.418;17.962;2022-08-21T02:26:34;7.10;;;1.33;;
70832;SDS011;58452;59.418;17.962;2022-08-21T02:29:00;6.70;;;1.92;;
70832;SDS011;58452;59.418;17.962;2022-08-21T02:31:26;11.90;;;3.22;;
70832;SDS011;58452;59.418;17.962;2022-08-21T02:33:52;4.05;;;1.48;;
70832;SDS011;58452;59.418;17.962;2022-08-21T02:36:17;7.15;;;2.63;;
70832;SDS011;58452;59.418;17.962;2022-08-21T02:38:43;6.03;;;1.45;;
70832;SDS011;58452;59.418;17.962;2022-08-21T02:41:12;6.43;;;1.98;;
70832;SDS011;58452;59.418;17.962;2022-08-21T02:43:41;6.90;;;1.63;;
70832;SDS011;58452;59.418;17.962;2022-08-21T02:46:08;7.72;;;1.63;;
70832;SDS011;58452;59.418;17.962;2022-08-21T02:48:34;5.50;;;1.83;;
70832;SDS011;58452;59.418;17.962;2022-08-21T02:51:08;4.88;;;1.73;;
70832;SDS011;58452;59.418;17.962;2022-08-21T02:53:39;5.60;;;2.13;;
70832;SDS011;58452;59.418;17.962;2022-08-21T02:56:07;7.50;;;1.70;;
70832;SDS011;58452;59.418;17.962;2022-08-21T02:58:35;6.97;;;2.13;;
70832;SDS011;58452;59.418;17.962;2022-08-21T03:01:03;8.85;;;1.80;;
70832;SDS011;58452;59.418;17.962;2022-08-21T03:03:29;6.78;;;2.50;;
70832;SDS011;58452;59.418;17.962;2022-08-21T03:05:55;12.02;;;2.92;;
70832;SDS011;58452;59.418;17.962;2022-08-21T03:08:21;7.40;;;1.77;;
70832;SDS011;58452;59.418;17.962;2022-08-21T03:10:49;4.35;;;1.77;;
70832;SDS011;58452;59.418;17.962;2022-08-21T03:13:16;6.18;;;2.10;;
70832;SDS011;58452;59.418;17.962;2022-08-21T03:15:42;6.28;;;1.83;;
70832;SDS011;58452;59.418;17.962;2022-08-21T03:18:08;9.20;;;2.10;;
70832;SDS011;58452;59.418;17.962;2022-08-21T03:20:36;4.88;;;1.85;;
70832;SDS011;58452;59.418;17.962;2022-08-21T03:23:03;4.57;;;2.10;;
70832;SDS011;58452;59.418;17.962;2022-08-21T03:25:29;5.05;;;2.00;;
70832;SDS011;58452;59.418;17.962;2022-08-21T03:27:58;11.23;;;2.78;;
70832;SDS011;58452;59.418;17.962;2022-08-21T03:30:24;4.68;;;2.08;;
70832;SDS011;58452;59.418;17.962;2022-08-21T03:32:50;5.95;;;1.75;;
70832;SDS011;58452;59.418;17.962;2022-08-21T03:35:16;4.65;;;1.83;;
70832;SDS011;58452;59.418;17.962;2022-08-21T03:37:42;9.77;;;1.95;;
70832;SDS011;58452;59.418;17.962;2022-08-21T03:40:08;8.95;;;2.35;;
70832;SDS011;58452;59.418;17.962;2022-08-21T03:42:35;11.57;;;3.03;;
70832;SDS011;58452;59.418;17.962;2022-08-21T03:45:00;9.25;;;1.95;;
70832;SDS011;58452;59.418;17.962;2022-08-21T03:47:26;14.38;;;3.03;;
70832;SDS011;58452;59.418;17.962;2022-08-21T03:49:52;7.72;;;2.35;;
70832;SDS011;58452;59.418;17.962;2022-08-21T03:52:17;7.22;;;2.47;;
70832;SDS011;58452;59.418;17.962;2022-08-21T03:54:43;10.35;;;2.58;;
70832;SDS011;58452;59.418;17.962;2022-08-21T03:57:09;7.03;;;1.70;;
70832;SDS011;58452;59.418;17.962;2022-08-21T03:59:35;8.15;;;3.30;;
70832;SDS011;58452;59.418;17.962;2022-08-21T04:02:03;9.85;;;3.00;;
70832;SDS011;58452;59.418;17.962;2022-08-21T04:04:30;9.88;;;2.20;;
70832;SDS011;58452;59.418;17.962;2022-08-21T04:06:56;4.63;;;1.60;;
70832;SDS011;58452;59.418;17.962;2022-08-21T04:09:22;10.65;;;2.30;;
70832;SDS011;58452;59.418;17.962;2022-08-21T04:11:48;10.02;;;2.17;;
70832;SDS011;58452;59.418;17.962;2022-08-21T04:14:14;6.38;;;2.10;;
70832;SDS011;58452;59.418;17.962;2022-08-21T04:16:40;6.78;;;2.10;;
70832;SDS011;58452;59.418;17.962;2022-08-21T04:19:07;6.72;;;1.67;;
70832;SDS011;58452;59.418;17.962;2022-08-21T04:21:33;4.43;;;1.80;;
70832;SDS011;58452;59.418;17.962;2022-08-21T04:24:00;6.30;;;2.50;;
70832;SDS011;58452;59.418;17.962;2022-08-21T04:26:25;6.93;;;2.63;;
70832;SDS011;58452;59.418;17.962;2022-08-21T04:28:51;9.20;;;2.42;;
70832;SDS011;58452;59.418;17.962;2022-08-21T04:31:17;10.00;;;3.30;;
70832;SDS011;58452;59.418;17.962;2022-08-21T04:33:43;6.95;;;2.90;;
70832;SDS011;58452;59.418;17.962;2022-08-21T04:36:08;5.85;;;2.30;;
70832;SDS011;58452;59.418;17.962;2022-08-21T04:38:34;9.93;;;2.83;;
70832;SDS011;58452;59.418;17.962;2022-08-21T04:40:59;11.40;;;3.60;;
70832;SDS011;58452;59.418;17.962;2022-08-21T04:43:25;6.13;;;2.17;;
70832;SDS011;58452;59.418;17.962;2022-08-21T04:45:51;8.88;;;1.90;;
70832;SDS011;58452;59.418;17.962;2022-08-21T04:48:18;6.63;;;2.10;;
70832;SDS011;58452;59.418;17.962;2022-08-21T04:50:56;9.90;;;2.03;;
70832;SDS011;58452;59.418;17.962;2022-08-21T04:53:33;8.85;;;1.83;;
70832;SDS011;58452;59.418;17.962;2022-08-21T04:56:05;9.77;;;2.75;;
70832;SDS011;58452;59.418;17.962;2022-08-21T04:58:35;9.52;;;2.38;;
70832;SDS011;58452;59.418;17.962;2022-08-21T05:01:04;8.20;;;2.55;;
70832;SDS011;58452;59.418;17.962;2022-08-21T05:03:32;7.70;;;1.98;;
70832;SDS011;58452;59.418;17.962;2022-08-21T05:05:59;11.93;;;3.00;;
70832;SDS011;58452;59.418;17.962;2022-08-21T05:08:25;12.00;;;2.75;;
70832;SDS011;58452;59.418;17.962;2022-08-21T05:10:52;7.97;;;2.72;;
70832;SDS011;58452;59.418;17.962;2022-08-21T05:13:18;4.85;;;1.98;;
70832;SDS011;58452;59.418;17.962;2022-08-21T05:15:44;12.05;;;3.83;;
70832;SDS011;58452;59.418;17.962;2022-08-21T05:18:10;9.57;;;2.28;;
70832;SDS011;58452;59.418;17.962;2022-08-21T05:20:35;7.68;;;2.42;;
70832;SDS011;58452;59.418;17.962;2022-08-21T05:23:01;11.38;;;2.47;;
70832;SDS011;58452;59.418;17.962;2022-08-21T05:25:33;10.35;;;3.05;;
70832;SDS011;58452;59.418;17.962;2022-08-21T05:27:58;8.48;;;2.00;;
70832;SDS011;58452;59.418;17.962;2022-08-21T05:30:24;10.82;;;3.20;;
70832;SDS011;58452;59.418;17.962;2022-08-21T05:32:49;10.00;;;2.92;;
70832;SDS011;58452;59.418;17.962;2022-08-21T05:35:24;6.95;;;2.05;;
70832;SDS011;58452;59.418;17.962;2022-08-21T05:37:50;7.97;;;2.35;;
70832;SDS011;58452;59.418;17.962;2022-08-21T05:40:16;9.13;;;2.30;;
70832;SDS011;58452;59.418;17.962;2022-08-21T05:42:42;11.63;;;3.35;;
70832;SDS011;58452;59.418;17.962;2022-08-21T05:45:08;5.15;;;2.20;;
70832;SDS011;58452;59.418;17.962;2022-08-21T05:47:33;9.55;;;2.72;;
70832;SDS011;58452;59.418;17.962;2022-08-21T05:49:59;11.48;;;2.70;;
70832;SDS011;58452;59.418;17.962;2022-08-21T05:52:24;8.30;;;2.17;;
70832;SDS011;58452;59.418;17.962;2022-08-21T05:54:50;7.32;;;2.15;;
70832;SDS011;58452;59.418;17.962;2022-08-21T05:57:15;16.35;;;3.53;;
70832;SDS011;58452;59.418;17.962;2022-08-21T05:59:41;8.50;;;2.17;;
70832;SDS011;58452;59.418;17.962;2022-08-21T06:02:06;5.20;;;2.03;;
70832;SDS011;58452;59.418;17.962;2022-08-21T06:04:36;11.93;;;2.42;;
70832;SDS011;58452;59.418;17.962;2022-08-21T06:07:02;9.10;;;1.98;;
70832;SDS011;58452;59.418;17.962;2022-08-21T06:09:28;12.45;;;2.70;;
70832;SDS011;58452;59.418;17.962;2022-08-21T06:11:53;8.65;;;2.88;;
70832;SDS011;58452;59.418;17.962;2022-08-21T06:14:19;6.22;;;2.33;;
70832;SDS011;58452;59.418;17.962;2022-08-21T06:16:44;9.35;;;3.75;;
70832;SDS011;58452;59.418;17.962;2022-08-21T06:19:10;10.35;;;2.47;;
70832;SDS011;58452;59.418;17.962;2022-08-21T06:21:35;12.75;;;3.30;;
70832;SDS011;58452;59.418;17.962;2022-08-21T06:24:00;12.13;;;2.60;;
70832;SDS011;58452;59.418;17.962;2022-08-21T06:26:26;11.07;;;2.40;;
70832;SDS011;58452;59.418;17.962;2022-08-21T06:28:52;10.23;;;3.55;;
70832;SDS011;58452;59.418;17.962;2022-08-21T06:31:23;11.10;;;2.83;;
70832;SDS011;58452;59.418;17.962;2022-08-21T06:33:50;11.35;;;2.78;;
70832;SDS011;58452;59.418;17.962;2022-08-21T06:36:16;10.45;;;2.00;;
70832;SDS011;58452;59.418;17.962;2022-08-21T06:38:42;6.35;;;2.65;;
70832;SDS011;58452;59.418;17.962;2022-08-21T06:41:07;10.07;;;3.05;;
70832;SDS011;58452;59.418;17.962;2022-08-21T06:43:33;8.52;;;2.30;;
70832;SDS011;58452;59.418;17.962;2022-08-21T06:45:58;8.88;;;2.45;;
70832;SDS011;58452;59.418;17.962;2022-08-21T06:48:24;19.02;;;3.67;;
70832;SDS011;58452;59.418;17.962;2022-08-21T06:50:49;14.65;;;3.30;;
70832;SDS011;58452;59.418;17.962;2022-08-21T06:53:16;11.98;;;2.63;;
70832;SDS011;58452;59.418;17.962;2022-08-21T06:55:43;15.82;;;2.90;;
70832;SDS011;58452;59.418;17.962;2022-08-21T06:58:11;13.52;;;3.10;;
70832;SDS011;58452;59.418;17.962;2022-08-21T07:00:40;9.48;;;2.00;;
70832;SDS011;58452;59.418;17.962;2022-08-21T07:03:07;8.20;;;2.78;;
70832;SDS011;58452;59.418;17.962;2022-08-21T07:05:42;7.72;;;3.20;;
70832;SDS011;58452;59.418;17.962;2022-08-21T07:08:08;8.77;;;2.90;;
70832;SDS011;58452;59.418;17.962;2022-08-21T07:10:33;10.43;;;2.38;;
70832;SDS011;58452;59.418;17.962;2022-08-21T07:12:59;6.53;;;2.47;;
70832;SDS011;58452;59.418;17.962;2022-08-21T07:15:25;6.80;;;2.60;;
70832;SDS011;58452;59.418;17.962;2022-08-21T07:17:50;7.03;;;2.10;;
70832;SDS011;58452;59.418;17.962;2022-08-21T07:20:15;6.10;;;2.35;;
70832;SDS011;58452;59.418;17.962;2022-08-21T07:22:41;9.43;;;2.85;;
70832;SDS011;58452;59.418;17.962;2022-08-21T07:25:07;9.70;;;2.55;;
70832;SDS011;58452;59.418;17.962;2022-08-21T07:27:33;11.65;;;2.75;;
70832;SDS011;58452;59.418;17.962;2022-08-21T07:29:58;7.32;;;2.47;;
70832;SDS011;58452;59.418;17.962;2022-08-21T07:32:24;6.78;;;1.92;;
70832;SDS011;58452;59.418;17.962;2022-08-21T07:34:50;18.00;;;2.80;;
70832;SDS011;58452;59.418;17.962;2022-08-21T07:37:15;11.38;;;2.70;;
70832;SDS011;58452;59.418;17.962;2022-08-21T07:39:41;10.20;;;1.88;;
70832;SDS011;58452;59.418;17.962;2022-08-21T07:42:06;8.95;;;2.58;;
70832;SDS011;58452;59.418;17.962;2022-08-21T07:44:32;10.88;;;2.72;;
70832;SDS011;58452;59.418;17.962;2022-08-21T07:46:59;8.75;;;2.08;;
70832;SDS011;58452;59.418;17.962;2022-08-21T07:49:25;11.07;;;3.05;;
70832;SDS011;58452;59.418;17.962;2022-08-21T07:51:51;12.70;;;2.40;;
70832;SDS011;58452;59.418;17.962;2022-08-21T07:54:16;10.68;;;2.28;;
70832;SDS011;58452;59.418;17.962;2022-08-21T07:56:42;7.78;;;2.25;;
70832;SDS011;58452;59.418;17.962;2022-08-21T07:59:07;5.90;;;2.35;;
70832;SDS011;58452;59.418;17.962;2022-08-21T08:01:33;10.35;;;2.53;;
70832;SDS011;58452;59.418;17.962;2022-08-21T08:03:58;7.25;;;2.20;;
70832;SDS011;58452;59.418;17.962;2022-08-21T08:06:24;9.15;;;2.05;;
70832;SDS011;58452;59.418;17.962;2022-08-21T08:08:50;6.70;;;1.75;;
70832;SDS011;58452;59.418;17.962;2022-08-21T08:11:15;12.15;;;3.30;;
70832;SDS011;58452;59.418;17.962;2022-08-21T08:13:42;7.63;;;1.98;;
70832;SDS011;58452;59.418;17.962;2022-08-21T08:16:09;5.38;;;1.95;;
70832;SDS011;58452;59.418;17.962;2022-08-21T08:18:35;11.48;;;2.58;;
70832;SDS011;58452;59.418;17.962;2022-08-21T08:21:00;9.20;;;2.65;;
70832;SDS011;58452;59.418;17.962;2022-08-21T08:23:26;8.68;;;2.47;;
70832;SDS011;58452;59.418;17.962;2022-08-21T08:25:52;10.55;;;3.00;;
70832;SDS011;58452;59.418;17.962;2022-08-21T08:28:17;9.10;;;2.00;;
70832;SDS011;58452;59.418;17.962;2022-08-21T08:30:46;10.15;;;2.55;;
70832;SDS011;58452;59.418;17.962;2022-08-21T08:33:12;6.63;;;2.08;;
70832;SDS011;58452;59.418;17.962;2022-08-21T08:35:37;7.75;;;2.20;;
70832;SDS011;58452;59.418;17.962;2022-08-21T08:38:05;9.23;;;3.15;;
70832;SDS011;58452;59.418;17.962;2022-08-21T08:40:32;7.80;;;2.20;;
70832;SDS011;58452;59.418;17.962;2022-08-21T08:43:00;11.82;;;2.80;;
70832;SDS011;58452;59.418;17.962;2022-08-21T08:45:26;7.65;;;2.60;;
70832;SDS011;58452;59.418;17.962;2022-08-21T08:47:56;12.20;;;1.88;;
70832;SDS011;58452;59.418;17.962;2022-08-21T08:52:59;6.82;;;2.53;;
70832;SDS011;58452;59.418;17.962;2022-08-21T08:55:39;10.45;;;3.08;;
70832;SDS011;58452;59.418;17.962;2022-08-21T08:58:09;7.68;;;2.08;;
70832;SDS011;58452;59.418;17.962;2022-08-21T09:00:40;9.40;;;2.47;;
70832;SDS011;58452;59.418;17.962;2022-08-21T09:03:05;12.50;;;2.65;;
70832;SDS011;58452;59.418;17.962;2022-08-21T09:06:07;6.22;;;2.13;;
70832;SDS011;58452;59.418;17.962;2022-08-21T09:11:13;9.02;;;2.60;;
70832;SDS011;58452;59.418;17.962;2022-08-21T09:13:53;3.78;;;2.08;;
70832;SDS011;58452;59.418;17.962;2022-08-21T09:24:53;8.63;;;2.22;;
70832;SDS011;58452;59.418;17.962;2022-08-21T09:27:32;6.35;;;1.98;;
70832;SDS011;58452;59.418;17.962;2022-08-21T09:29:58;11.30;;;2.35;;
70832;SDS011;58452;59.418;17.962;2022-08-21T09:32:25;8.32;;;2.90;;
70832;SDS011;58452;59.418;17.962;2022-08-21T09:35:03;9.48;;;2.20;;
70832;SDS011;58452;59.418;17.962;2022-08-21T09:37:57;8.52;;;2.38;;
70832;SDS011;58452;59.418;17.962;2022-08-21T09:40:26;8.73;;;2.17;;
70832;SDS011;58452;59.418;17.962;2022-08-21T09:45:25;8.30;;;2.13;;
70832;SDS011;58452;59.418;17.962;2022-08-21T09:47:54;8.60;;;2.55;;
70832;SDS011;58452;59.418;17.962;2022-08-21T09:50:21;9.55;;;2.25;;
70832;SDS011;58452;59.418;17.962;2022-08-21T09:52:51;5.35;;;2.03;;
70832;SDS011;58452;59.418;17.962;2022-08-21T09:58:40;12.65;;;2.22;;
70832;SDS011;58452;59.418;17.962;2022-08-21T10:01:14;11.75;;;2.70;;
70832;SDS011;58452;59.418;17.962;2022-08-21T10:03:47;8.20;;;2.35;;
70832;SDS011;58452;59.418;17.962;2022-08-21T10:06:23;4.32;;;1.55;;
70832;SDS011;58452;59.418;17.962;2022-08-21T10:09:02;5.78;;;2.15;;
70832;SDS011;58452;59.418;17.962;2022-08-21T10:11:40;6.70;;;2.10;;
70832;SDS011;58452;59.418;17.962;2022-08-21T10:28:01;7.20;;;1.58;;
70832;SDS011;58452;59.418;17.962;2022-08-21T10:30:37;3.50;;;1.83;;
70832;SDS011;58452;59.418;17.962;2022-08-21T10:36:36;4.97;;;1.85;;
70832;SDS011;58452;59.418;17.962;2022-08-21T10:47:01;5.82;;;1.42;;
70832;SDS011;58452;59.418;17.962;2022-08-21T10:52:27;4.47;;;1.50;;
70832;SDS011;58452;59.418;17.962;2022-08-21T10:55:07;4.45;;;1.15;;
70832;SDS011;58452;59.418;17.962;2022-08-21T11:00:11;4.93;;;1.90;;
70832;SDS011;58452;59.418;17.962;2022-08-21T11:02:46;9.05;;;2.70;;
70832;SDS011;58452;59.418;17.962;2022-08-21T11:10:30;5.45;;;2.10;;
70832;SDS011;58452;59.418;17.962;2022-08-21T11:13:04;6.50;;;1.45;;
70832;SDS011;58452;59.418;17.962;2022-08-21T11:15:36;6.80;;;1.42;;
70832;SDS011;58452;59.418;17.962;2022-08-21T11:21:01;5.65;;;1.63;;
70832;SDS011;58452;59.418;17.962;2022-08-21T11:23:37;6.85;;;1.70;;
70832;SDS011;58452;59.418;17.962;2022-08-21T11:26:11;5.90;;;2.00;;
70832;SDS011;58452;59.418;17.962;2022-08-21T11:28:48;5.35;;;1.70;;
70832;SDS011;58452;59.418;17.962;2022-08-21T11:39:33;11.20;;;1.80;;
70832;SDS011;58452;59.418;17.962;2022-08-21T11:44:41;5.40;;;2.10;;
70832;SDS011;58452;59.418;17.962;2022-08-21T11:52:45;5.80;;;3.10;;
70832;SDS011;58452;59.418;17.962;2022-08-21T11:55:18;6.18;;;2.35;;
70832;SDS011;58452;59.418;17.962;2022-08-21T12:00:49;4.88;;;2.00;;
70832;SDS011;58452;59.418;17.962;2022-08-21T12:03:33;6.45;;;2.50;;
70832;SDS011;58452;59.418;17.962;2022-08-21T12:06:06;8.75;;;2.70;;
70832;SDS011;58452;59.418;17.962;2022-08-21T12:08:39;5.93;;;1.95;;
70832;SDS011;58452;59.418;17.962;2022-08-21T12:13:59;4.93;;;1.35;;
70832;SDS011;58452;59.418;17.962;2022-08-21T12:16:32;4.20;;;2.35;;
70832;SDS011;58452;59.418;17.962;2022-08-21T12:19:10;7.93;;;1.27;;
70832;SDS011;58452;59.418;17.962;2022-08-21T12:21:48;7.13;;;2.35;;
70832;SDS011;58452;59.418;17.962;2022-08-21T12:24:19;6.63;;;1.35;;
70832;SDS011;58452;59.418;17.962;2022-08-21T12:32:26;3.63;;;1.33;;
70832;SDS011;58452;59.418;17.962;2022-08-21T12:35:02;3.13;;;1.00;;
70832;SDS011;58452;59.418;17.962;2022-08-21T12:37:43;2.95;;;1.05;;
70832;SDS011;58452;59.418;17.962;2022-08-21T12:43:05;3.73;;;0.90;;
70832;SDS011;58452;59.418;17.962;2022-08-21T12:48:28;2.97;;;1.17;;
70832;SDS011;58452;59.418;17.962;2022-08-21T12:53:47;1.85;;;1.00;;
70832;SDS011;58452;59.418;17.962;2022-08-21T12:56:16;1.33;;;0.90;;
70832;SDS011;58452;59.418;17.962;2022-08-21T12:58:47;3.13;;;1.08;;
70832;SDS011;58452;59.418;17.962;2022-08-21T13:01:24;1.33;;;0.80;;
70832;SDS011;58452;59.418;17.962;2022-08-21T13:03:53;3.08;;;1.25;;
70832;SDS011;58452;59.418;17.962;2022-08-21T13:06:23;1.83;;;0.88;;
70832;SDS011;58452;59.418;17.962;2022-08-21T13:08:55;1.63;;;0.70;;
70832;SDS011;58452;59.418;17.962;2022-08-21T13:11:23;3.20;;;0.90;;
70832;SDS011;58452;59.418;17.962;2022-08-21T13:13:50;2.00;;;0.55;;
70832;SDS011;58452;59.418;17.962;2022-08-21T13:16:24;3.55;;;0.90;;
70832;SDS011;58452;59.418;17.962;2022-08-21T13:21:41;1.23;;;0.60;;
70832;SDS011;58452;59.418;17.962;2022-08-21T13:26:45;2.65;;;0.98;;
70832;SDS011;58452;59.418;17.962;2022-08-21T13:29:12;1.60;;;0.68;;
70832;SDS011;58452;59.418;17.962;2022-08-21T13:31:42;2.55;;;0.60;;
70832;SDS011;58452;59.418;17.962;2022-08-21T13:34:13;1.90;;;0.77;;
70832;SDS011;58452;59.418;17.962;2022-08-21T13:36:41;2.13;;;0.80;;
70832;SDS011;58452;59.418;17.962;2022-08-21T13:39:08;1.00;;;0.73;;
70832;SDS011;58452;59.418;17.962;2022-08-21T13:41:38;4.28;;;1.02;;
70832;SDS011;58452;59.418;17.962;2022-08-21T13:44:17;3.08;;;1.42;;
70832;SDS011;58452;59.418;17.962;2022-08-21T13:46:46;5.13;;;1.42;;
70832;SDS011;58452;59.418;17.962;2022-08-21T13:49:15;3.75;;;0.90;;
70832;SDS011;58452;59.418;17.962;2022-08-21T13:51:42;4.63;;;0.93;;
70832;SDS011;58452;59.418;17.962;2022-08-21T13:57:19;6.25;;;1.33;;
70832;SDS011;58452;59.418;17.962;2022-08-21T13:59:50;2.50;;;0.95;;
70832;SDS011;58452;59.418;17.962;2022-08-21T14:07:26;3.17;;;1.27;;
70832;SDS011;58452;59.418;17.962;2022-08-21T14:10:00;1.52;;;0.75;;
70832;SDS011;58452;59.418;17.962;2022-08-21T14:12:29;3.50;;;1.40;;
70832;SDS011;58452;59.418;17.962;2022-08-21T14:15:02;1.60;;;0.90;;
70832;SDS011;58452;59.418;17.962;2022-08-21T14:17:34;2.33;;;1.15;;
70832;SDS011;58452;59.418;17.962;2022-08-21T14:20:02;4.55;;;1.13;;
70832;SDS011;58452;59.418;17.962;2022-08-21T14:22:39;2.08;;;1.20;;
70832;SDS011;58452;59.418;17.962;2022-08-21T14:25:11;3.53;;;1.00;;
70832;SDS011;58452;59.418;17.962;2022-08-21T14:27:38;5.78;;;1.88;;
70832;SDS011;58452;59.418;17.962;2022-08-21T14:30:17;2.35;;;0.55;;
70832;SDS011;58452;59.418;17.962;2022-08-21T14:32:45;3.55;;;1.05;;
70832;SDS011;58452;59.418;17.962;2022-08-21T14:35:11;2.95;;;0.82;;
70832;SDS011;58452;59.418;17.962;2022-08-21T14:37:37;2.42;;;0.80;;
70832;SDS011;58452;59.418;17.962;2022-08-21T14:40:07;3.17;;;1.23;;
70832;SDS011;58452;59.418;17.962;2022-08-21T14:42:33;2.88;;;1.10;;
70832;SDS011;58452;59.418;17.962;2022-08-21T14:45:00;3.58;;;0.98;;
70832;SDS011;58452;59.418;17.962;2022-08-21T14:47:30;1.77;;;0.85;;
70832;SDS011;58452;59.418;17.962;2022-08-21T14:49:56;3.05;;;0.60;;
70832;SDS011;58452;59.418;17.962;2022-08-21T14:52:21;2.05;;;0.80;;
70832;SDS011;58452;59.418;17.962;2022-08-21T14:54:48;3.00;;;0.57;;
70832;SDS011;58452;59.418;17.962;2022-08-21T14:57:14;3.72;;;1.55;;
70832;SDS011;58452;59.418;17.962;2022-08-21T14:59:40;2.13;;;1.13;;
70832;SDS011;58452;59.418;17.962;2022-08-21T15:02:06;3.47;;;0.55;;
70832;SDS011;58452;59.418;17.962;2022-08-21T15:04:33;1.98;;;1.13;;
70832;SDS011;58452;59.418;17.962;2022-08-21T15:06:59;1.30;;;0.60;;
70832;SDS011;58452;59.418;17.962;2022-08-21T15:09:25;1.88;;;0.93;;
70832;SDS011;58452;59.418;17.962;2022-08-21T15:11:55;1.73;;;0.57;;
70832;SDS011;58452;59.418;17.962;2022-08-21T15:14:26;2.90;;;0.55;;
70832;SDS011;58452;59.418;17.962;2022-08-21T15:16:53;3.85;;;0.93;;
70832;SDS011;58452;59.418;17.962;2022-08-21T15:19:19;1.00;;;0.70;;
70832;SDS011;58452;59.418;17.962;2022-08-21T15:21:44;3.53;;;1.02;;
70832;SDS011;58452;59.418;17.962;2022-08-21T15:24:10;3.13;;;0.70;;
70832;SDS011;58452;59.418;17.962;2022-08-21T15:26:35;3.10;;;0.60;;
70832;SDS011;58452;59.418;17.962;2022-08-21T15:29:01;1.85;;;0.70;;
70832;SDS011;58452;59.418;17.962;2022-08-21T15:31:27;2.15;;;0.77;;
70832;SDS011;58452;59.418;17.962;2022-08-21T15:33:53;2.90;;;0.90;;
70832;SDS011;58452;59.418;17.962;2022-08-21T15:36:18;1.77;;;0.52;;
70832;SDS011;58452;59.418;17.962;2022-08-21T15:38:44;3.97;;;0.90;;
70832;SDS011;58452;59.418;17.962;2022-08-21T15:41:10;2.28;;;0.70;;
70832;SDS011;58452;59.418;17.962;2022-08-21T15:43:46;1.38;;;0.60;;
70832;SDS011;58452;59.418;17.962;2022-08-21T15:46:14;0.82;;;0.55;;
70832;SDS011;58452;59.418;17.962;2022-08-21T15:48:41;3.08;;;0.70;;
70832;SDS011;58452;59.418;17.962;2022-08-21T15:51:08;3.15;;;0.90;;
70832;SDS011;58452;59.418;17.962;2022-08-21T15:53:34;2.78;;;0.85;;
70832;SDS011;58452;59.418;17.962;2022-08-21T15:56:03;2.78;;;0.80;;
70832;SDS011;58452;59.418;17.962;2022-08-21T15:58:29;5.10;;;0.80;;
70832;SDS011;58452;59.418;17.962;2022-08-21T16:00:55;2.08;;;0.70;;
70832;SDS011;58452;59.418;17.962;2022-08-21T16:03:24;3.85;;;1.05;;
70832;SDS011;58452;59.418;17.962;2022-08-21T16:05:51;3.22;;;1.10;;
70832;SDS011;58452;59.418;17.962;2022-08-21T16:08:18;7.35;;;1.50;;
70832;SDS011;58452;59.418;17.962;2022-08-21T16:10:45;3.47;;;1.70;;
70832;SDS011;58452;59.418;17.962;2022-08-21T16:13:16;3.10;;;1.10;;
70832;SDS011;58452;59.418;17.962;2022-08-21T16:15:45;2.28;;;0.82;;
70832;SDS011;58452;59.418;17.962;2022-08-21T16:18:10;3.53;;;1.10;;
70832;SDS011;58452;59.418;17.962;2022-08-21T16:20:36;2.42;;;0.98;;
70832;SDS011;58452;59.418;17.962;2022-08-21T16:23:02;0.95;;;0.70;;
70832;SDS011;58452;59.418;17.962;2022-08-21T16:25:28;4.95;;;0.90;;
70832;SDS011;58452;59.418;17.962;2022-08-21T16:27:55;2.72;;;1.10;;